sensor_id;sensor_type;location;lat;lon;timestamp;temperature;humidity
22948;DHT22;11640;52.520;13.456;2022-08-21T00:02:33;19.90;99.90
22948;DHT22;11640;52.520;13.456;2022-08-21T00:07:35;19.90;99.90
22948;DHT22;11640;52.520;13.456;2022-08-21T00:12:37;19.90;99.90
22948;DHT22;11640;52.520;13.456;2022-08-21T00:17:39;19.80;99.90
22948;DHT22;11640;52.520;13.456;2022-08-21T00:22:41;19.70;99.90
22948;DHT22;11640;52.520;13.456;2022-08-21T00:27:43;19.70;99.90
22948;DHT22;11640;52.520;13.456;2022-08-21T00:32:46;19.60;99.90
22948;DHT22;11640;52.520;13.456;2022-08-21T00:37:48;19.50;99.90
22948;DHT22;11640;52.520;13.456;2022-08-21T00:42:50;19.60;99.90
22948;DHT22;11640;52.520;13.456;2022-08-21T00:47:54;19.50;99.90
22948;DHT22;11640;52.520;13.456;2022-08-21T00:52:56;19.40;99.90
22948;DHT22;11640;52.520;13.456;2022-08-21T00:58:00;19.50;99.90
22948;DHT22;11640;52.520;13.456;2022-08-21T01:03:06;19.50;99.90
22948;DHT22;11640;52.520;13.456;2022-08-21T01:08:10;19.40;99.90
22948;DHT22;11640;52.520;13.456;2022-08-21T01:13:14;19.40;99.90
22948;DHT22;11640;52.520;13.456;2022-08-21T01:18:19;19.30;99.90
22948;DHT22;11640;52.520;13.456;2022-08-21T01:23:21;19.30;99.90
22948;DHT22;11640;52.520;13.456;2022-08-21T01:28:23;19.30;99.90
22948;DHT22;11640;52.520;13.456;2022-08-21T01:33:25;19.30;99.90
22948;DHT22;11640;52.520;13.456;2022-08-21T01:38:27;19.20;99.90
22948;DHT22;11640;52.520;13.456;2022-08-21T01:43:29;19.20;99.90
22948;DHT22;11640;52.520;13.456;2022-08-21T01:48:41;19.20;99.90
22948;DHT22;11640;52.520;13.456;2022-08-21T01:53:43;19.10;99.90
22948;DHT22;11640;52.520;13.456;2022-08-21T01:58:46;19.00;99.90
22948;DHT22;11640;52.520;13.456;2022-08-21T02:03:48;18.90;99.90
22948;DHT22;11640;52.520;13.456;2022-08-21T02:08:51;18.80;99.90
22948;DHT22;11640;52.520;13.456;2022-08-21T02:13:53;18.70;99.90
22948;DHT22;11640;52.520;13.456;2022-08-21T02:18:55;18.70;99.90
22948;DHT22;11640;52.520;13.456;2022-08-21T02:23:57;18.60;99.90
22948;DHT22;11640;52.520;13.456;2022-08-21T02:28:59;18.60;99.90
22948;DHT22;11640;52.520;13.456;2022-08-21T02:34:01;18.50;99.90
22948;DHT22;11640;52.520;13.456;2022-08-21T02:39:03;18.40;99.90
22948;DHT22;11640;52.520;13.456;2022-08-21T02:44:05;18.30;99.90
22948;DHT22;11640;52.520;13.456;2022-08-21T02:49:06;18.30;99.90
22948;DHT22;11640;52.520;13.456;2022-08-21T02:54:08;18.20;99.90
22948;DHT22;11640;52.520;13.456;2022-08-21T02:59:10;18.20;99.90
22948;DHT22;11640;52.520;13.456;2022-08-21T03:04:12;18.20;99.90
22948;DHT22;11640;52.520;13.456;2022-08-21T03:09:14;18.10;99.90
22948;DHT22;11640;52.520;13.456;2022-08-21T03:14:15;18.10;99.90
22948;DHT22;11640;52.520;13.456;2022-08-21T03:19:17;18.00;99.90
22948;DHT22;11640;52.520;13.456;2022-08-21T03:24:19;18.00;99.90
22948;DHT22;11640;52.520;13.456;2022-08-21T03:29:23;18.00;99.90
22948;DHT22;11640;52.520;13.456;2022-08-21T03:34:25;18.00;99.90
22948;DHT22;11640;52.520;13.456;2022-08-21T03:39:27;17.90;99.90
22948;DHT22;11640;52.520;13.456;2022-08-21T03:44:28;17.90;99.90
22948;DHT22;11640;52.520;13.456;2022-08-21T03:49:31;17.80;99.90
22948;DHT22;11640;52.520;13.456;2022-08-21T03:54:33;17.80;99.90
22948;DHT22;11640;52.520;13.456;2022-08-21T03:59:36;17.70;99.90
22948;DHT22;11640;52.520;13.456;2022-08-21T04:04:38;17.70;99.90
22948;DHT22;11640;52.520;13.456;2022-08-21T04:09:40;17.70;99.90
22948;DHT22;11640;52.520;13.456;2022-08-21T04:14:42;17.60;99.90
22948;DHT22;11640;52.520;13.456;2022-08-21T04:19:44;17.50;99.90
22948;DHT22;11640;52.520;13.456;2022-08-21T04:24:53;17.50;99.90
22948;DHT22;11640;52.520;13.456;2022-08-21T04:29:55;17.50;99.90
22948;DHT22;11640;52.520;13.456;2022-08-21T04:35:02;17.50;99.90
22948;DHT22;11640;52.520;13.456;2022-08-21T04:40:06;17.50;99.90
22948;DHT22;11640;52.520;13.456;2022-08-21T04:45:09;17.60;99.90
22948;DHT22;11640;52.520;13.456;2022-08-21T04:50:10;17.50;99.90
22948;DHT22;11640;52.520;13.456;2022-08-21T04:55:27;17.50;99.90
22948;DHT22;11640;52.520;13.456;2022-08-21T05:00:29;17.50;99.90
22948;DHT22;11640;52.520;13.456;2022-08-21T05:05:31;17.60;99.90
22948;DHT22;11640;52.520;13.456;2022-08-21T05:10:33;17.50;99.90
22948;DHT22;11640;52.520;13.456;2022-08-21T05:15:35;17.50;99.90
22948;DHT22;11640;52.520;13.456;2022-08-21T05:20:38;17.60;99.90
22948;DHT22;11640;52.520;13.456;2022-08-21T05:25:40;17.60;99.90
22948;DHT22;11640;52.520;13.456;2022-08-21T05:30:43;17.60;99.90
22948;DHT22;11640;52.520;13.456;2022-08-21T05:35:45;17.60;99.90
22948;DHT22;11640;52.520;13.456;2022-08-21T05:40:47;17.70;99.90
22948;DHT22;11640;52.520;13.456;2022-08-21T05:45:49;17.80;99.90
22948;DHT22;11640;52.520;13.456;2022-08-21T05:50:52;17.70;99.90
22948;DHT22;11640;52.520;13.456;2022-08-21T05:55:54;17.80;99.90
22948;DHT22;11640;52.520;13.456;2022-08-21T06:00:56;17.80;99.90
22948;DHT22;11640;52.520;13.456;2022-08-21T06:05:59;17.90;99.90
22948;DHT22;11640;52.520;13.456;2022-08-21T06:11:02;17.90;99.90
22948;DHT22;11640;52.520;13.456;2022-08-21T06:16:08;17.90;99.90
22948;DHT22;11640;52.520;13.456;2022-08-21T06:21:11;18.00;99.90
22948;DHT22;11640;52.520;13.456;2022-08-21T06:26:14;18.00;99.90
22948;DHT22;11640;52.520;13.456;2022-08-21T06:31:22;18.10;99.90
22948;DHT22;11640;52.520;13.456;2022-08-21T06:36:24;18.20;99.90
22948;DHT22;11640;52.520;13.456;2022-08-21T06:41:27;18.20;99.90
22948;DHT22;11640;52.520;13.456;2022-08-21T06:46:30;18.20;99.90
22948;DHT22;11640;52.520;13.456;2022-08-21T06:51:32;18.30;99.90
22948;DHT22;11640;52.520;13.456;2022-08-21T06:56:34;18.40;99.90
22948;DHT22;11640;52.520;13.456;2022-08-21T07:01:36;18.50;99.90
22948;DHT22;11640;52.520;13.456;2022-08-21T07:06:38;18.60;99.90
22948;DHT22;11640;52.520;13.456;2022-08-21T07:11:40;18.70;99.90
22948;DHT22;11640;52.520;13.456;2022-08-21T07:16:49;18.80;99.90
22948;DHT22;11640;52.520;13.456;2022-08-21T07:21:52;19.00;99.90
22948;DHT22;11640;52.520;13.456;2022-08-21T07:26:54;19.10;99.90
22948;DHT22;11640;52.520;13.456;2022-08-21T07:31:56;19.10;99.90
22948;DHT22;11640;52.520;13.456;2022-08-21T07:36:58;19.20;99.90
22948;DHT22;11640;52.520;13.456;2022-08-21T07:42:07;19.20;99.90
22948;DHT22;11640;52.520;13.456;2022-08-21T07:47:09;19.50;99.90
22948;DHT22;11640;52.520;13.456;2022-08-21T07:52:11;19.70;99.90
22948;DHT22;11640;52.520;13.456;2022-08-21T07:57:13;19.80;99.90
22948;DHT22;11640;52.520;13.456;2022-08-21T08:02:26;19.80;99.90
22948;DHT22;11640;52.520;13.456;2022-08-21T08:07:28;20.00;99.90
22948;DHT22;11640;52.520;13.456;2022-08-21T08:12:30;19.90;99.90
22948;DHT22;11640;52.520;13.456;2022-08-21T08:17:32;20.00;99.90
22948;DHT22;11640;52.520;13.456;2022-08-21T08:22:35;20.10;99.90
22948;DHT22;11640;52.520;13.456;2022-08-21T08:27:39;20.20;99.90
22948;DHT22;11640;52.520;13.456;2022-08-21T08:32:41;20.40;99.90
22948;DHT22;11640;52.520;13.456;2022-08-21T08:37:43;20.50;99.90
22948;DHT22;11640;52.520;13.456;2022-08-21T08:42:52;20.50;99.90
22948;DHT22;11640;52.520;13.456;2022-08-21T08:48:04;20.70;99.90
22948;DHT22;11640;52.520;13.456;2022-08-21T08:53:32;20.90;99.90
22948;DHT22;11640;52.520;13.456;2022-08-21T08:58:38;21.00;99.90
22948;DHT22;11640;52.520;13.456;2022-08-21T09:03:40;21.30;99.90
22948;DHT22;11640;52.520;13.456;2022-08-21T09:08:46;21.30;99.90
22948;DHT22;11640;52.520;13.456;2022-08-21T09:19:28;21.30;99.90
22948;DHT22;11640;52.520;13.456;2022-08-21T09:29:56;21.40;99.90
22948;DHT22;11640;52.520;13.456;2022-08-21T09:35:21;21.60;99.90
22948;DHT22;11640;52.520;13.456;2022-08-21T09:45:35;21.60;99.90
22948;DHT22;11640;52.520;13.456;2022-08-21T09:50:36;21.70;99.90
22948;DHT22;11640;52.520;13.456;2022-08-21T09:55:51;22.00;99.90
22948;DHT22;11640;52.520;13.456;2022-08-21T10:06:25;22.30;99.90
22948;DHT22;11640;52.520;13.456;2022-08-21T10:11:28;22.40;99.90
22948;DHT22;11640;52.520;13.456;2022-08-21T10:16:52;22.70;99.90
22948;DHT22;11640;52.520;13.456;2022-08-21T10:32:57;22.80;99.90
22948;DHT22;11640;52.520;13.456;2022-08-21T10:49:34;22.60;99.90
22948;DHT22;11640;52.520;13.456;2022-08-21T10:54:50;22.80;99.90
22948;DHT22;11640;52.520;13.456;2022-08-21T11:00:02;23.20;99.90
22948;DHT22;11640;52.520;13.456;2022-08-21T11:05:09;22.70;99.90
22948;DHT22;11640;52.520;13.456;2022-08-21T11:10:23;22.60;99.90
22948;DHT22;11640;52.520;13.456;2022-08-21T11:15:33;23.00;99.90
22948;DHT22;11640;52.520;13.456;2022-08-21T11:20:46;22.70;99.90
22948;DHT22;11640;52.520;13.456;2022-08-21T11:25:55;22.60;99.90
22948;DHT22;11640;52.520;13.456;2022-08-21T11:31:29;22.80;99.90
22948;DHT22;11640;52.520;13.456;2022-08-21T11:36:44;22.90;99.90
22948;DHT22;11640;52.520;13.456;2022-08-21T11:41:59;22.90;99.90
22948;DHT22;11640;52.520;13.456;2022-08-21T11:47:15;23.10;99.90
22948;DHT22;11640;52.520;13.456;2022-08-21T11:52:34;23.10;99.90
22948;DHT22;11640;52.520;13.456;2022-08-21T11:57:57;23.20;99.90
22948;DHT22;11640;52.520;13.456;2022-08-21T12:03:56;22.80;99.90
22948;DHT22;11640;52.520;13.456;2022-08-21T12:08:43;23.50;99.90
22948;DHT22;11640;52.520;13.456;2022-08-21T12:19:12;23.70;99.90
22948;DHT22;11640;52.520;13.456;2022-08-21T12:24:41;23.90;99.90
22948;DHT22;11640;52.520;13.456;2022-08-21T12:29:50;23.80;97.30
22948;DHT22;11640;52.520;13.456;2022-08-21T12:35:02;23.90;98.00
22948;DHT22;11640;52.520;13.456;2022-08-21T12:40:28;24.10;96.20
22948;DHT22;11640;52.520;13.456;2022-08-21T12:45:34;24.80;96.60
22948;DHT22;11640;52.520;13.456;2022-08-21T12:50:48;24.80;97.90
22948;DHT22;11640;52.520;13.456;2022-08-21T12:55:51;25.00;97.30
22948;DHT22;11640;52.520;13.456;2022-08-21T13:01:17;25.40;95.90
22948;DHT22;11640;52.520;13.456;2022-08-21T13:06:20;25.40;90.90
22948;DHT22;11640;52.520;13.456;2022-08-21T13:11:26;25.90;92.00
22948;DHT22;11640;52.520;13.456;2022-08-21T13:16:34;25.60;93.10
22948;DHT22;11640;52.520;13.456;2022-08-21T13:21:41;25.40;93.60
22948;DHT22;11640;52.520;13.456;2022-08-21T13:26:44;25.90;93.60
22948;DHT22;11640;52.520;13.456;2022-08-21T13:31:51;26.10;92.90
22948;DHT22;11640;52.520;13.456;2022-08-21T13:36:57;26.70;92.40
22948;DHT22;11640;52.520;13.456;2022-08-21T13:42:01;26.60;91.90
22948;DHT22;11640;52.520;13.456;2022-08-21T13:47:07;26.50;91.30
22948;DHT22;11640;52.520;13.456;2022-08-21T13:52:28;27.00;92.00
22948;DHT22;11640;52.520;13.456;2022-08-21T13:57:32;27.00;91.50
22948;DHT22;11640;52.520;13.456;2022-08-21T14:02:39;26.50;91.50
22948;DHT22;11640;52.520;13.456;2022-08-21T14:07:43;26.40;92.40
22948;DHT22;11640;52.520;13.456;2022-08-21T14:12:55;26.00;93.80
22948;DHT22;11640;52.520;13.456;2022-08-21T14:18:18;25.80;94.70
22948;DHT22;11640;52.520;13.456;2022-08-21T14:23:25;26.70;94.30
22948;DHT22;11640;52.520;13.456;2022-08-21T14:28:37;27.00;94.50
22948;DHT22;11640;52.520;13.456;2022-08-21T14:33:41;26.70;94.10
22948;DHT22;11640;52.520;13.456;2022-08-21T14:38:43;26.80;94.00
22948;DHT22;11640;52.520;13.456;2022-08-21T14:43:46;26.40;95.40
22948;DHT22;11640;52.520;13.456;2022-08-21T14:49:00;25.80;95.10
22948;DHT22;11640;52.520;13.456;2022-08-21T14:54:02;25.90;95.40
22948;DHT22;11640;52.520;13.456;2022-08-21T14:59:07;25.40;96.30
22948;DHT22;11640;52.520;13.456;2022-08-21T15:04:10;25.20;96.80
22948;DHT22;11640;52.520;13.456;2022-08-21T15:09:12;25.00;96.80
22948;DHT22;11640;52.520;13.456;2022-08-21T15:14:20;24.80;98.40
22948;DHT22;11640;52.520;13.456;2022-08-21T15:19:22;24.40;98.40
22948;DHT22;11640;52.520;13.456;2022-08-21T15:24:24;24.30;98.60
22948;DHT22;11640;52.520;13.456;2022-08-21T15:29:27;24.30;98.80
22948;DHT22;11640;52.520;13.456;2022-08-21T15:34:34;24.30;99.30
22948;DHT22;11640;52.520;13.456;2022-08-21T15:39:36;24.30;99.90
22948;DHT22;11640;52.520;13.456;2022-08-21T15:44:41;24.30;99.80
22948;DHT22;11640;52.520;13.456;2022-08-21T15:49:44;24.10;99.90
22948;DHT22;11640;52.520;13.456;2022-08-21T15:54:47;24.00;99.90
22948;DHT22;11640;52.520;13.456;2022-08-21T15:59:51;24.00;99.90
22948;DHT22;11640;52.520;13.456;2022-08-21T16:04:55;24.00;99.90
22948;DHT22;11640;52.520;13.456;2022-08-21T16:09:57;23.90;99.90
22948;DHT22;11640;52.520;13.456;2022-08-21T16:15:00;23.80;99.90
22948;DHT22;11640;52.520;13.456;2022-08-21T16:20:07;23.60;99.90
22948;DHT22;11640;52.520;13.456;2022-08-21T16:25:09;23.70;99.90
22948;DHT22;11640;52.520;13.456;2022-08-21T16:30:11;23.60;99.90
22948;DHT22;11640;52.520;13.456;2022-08-21T16:35:15;23.50;99.90
22948;DHT22;11640;52.520;13.456;2022-08-21T16:40:18;23.50;99.90
22948;DHT22;11640;52.520;13.456;2022-08-21T16:45:20;23.40;99.90
22948;DHT22;11640;52.520;13.456;2022-08-21T16:50:23;23.40;99.90
22948;DHT22;11640;52.520;13.456;2022-08-21T16:55:25;23.30;99.90
22948;DHT22;11640;52.520;13.456;2022-08-21T17:00:27;23.30;99.90
22948;DHT22;11640;52.520;13.456;2022-08-21T17:05:29;23.20;99.90
22948;DHT22;11640;52.520;13.456;2022-08-21T17:10:31;23.20;99.90
22948;DHT22;11640;52.520;13.456;2022-08-21T17:15:35;23.10;99.90
22948;DHT22;11640;52.520;13.456;2022-08-21T17:20:37;23.10;99.90
22948;DHT22;11640;52.520;13.456;2022-08-21T17:25:42;23.00;99.90
22948;DHT22;11640;52.520;13.456;2022-08-21T17:30:44;23.00;99.90
22948;DHT22;11640;52.520;13.456;2022-08-21T17:35:47;22.90;99.90
22948;DHT22;11640;52.520;13.456;2022-08-21T17:40:49;22.70;99.90
22948;DHT22;11640;52.520;13.456;2022-08-21T17:45:51;22.60;99.90
22948;DHT22;11640;52.520;13.456;2022-08-21T17:50:54;22.50;99.90
22948;DHT22;11640;52.520;13.456;2022-08-21T17:55:56;22.40;99.90
22948;DHT22;11640;52.520;13.456;2022-08-21T18:01:00;22.20;99.90
22948;DHT22;11640;52.520;13.456;2022-08-21T18:06:05;22.00;99.90
22948;DHT22;11640;52.520;13.456;2022-08-21T18:11:08;21.90;99.90
22948;DHT22;11640;52.520;13.456;2022-08-21T18:16:19;21.70;99.90
22948;DHT22;11640;52.520;13.456;2022-08-21T18:21:22;21.50;99.90
22948;DHT22;11640;52.520;13.456;2022-08-21T18:26:32;21.40;99.90
22948;DHT22;11640;52.520;13.456;2022-08-21T18:31:37;21.20;99.90
22948;DHT22;11640;52.520;13.456;2022-08-21T18:36:39;21.00;99.90
22948;DHT22;11640;52.520;13.456;2022-08-21T18:41:42;20.90;99.90
22948;DHT22;11640;52.520;13.456;2022-08-21T18:46:51;20.70;99.90
22948;DHT22;11640;52.520;13.456;2022-08-21T18:51:55;20.50;99.90
22948;DHT22;11640;52.520;13.456;2022-08-21T18:56:58;20.40;99.90
22948;DHT22;11640;52.520;13.456;2022-08-21T19:01:59;20.30;99.90
22948;DHT22;11640;52.520;13.456;2022-08-21T19:07:02;20.20;99.90
22948;DHT22;11640;52.520;13.456;2022-08-21T19:12:05;20.00;99.90
22948;DHT22;11640;52.520;13.456;2022-08-21T19:17:11;19.90;99.90
22948;DHT22;11640;52.520;13.456;2022-08-21T19:22:13;19.80;99.90
22948;DHT22;11640;52.520;13.456;2022-08-21T19:27:18;19.70;99.90
22948;DHT22;11640;52.520;13.456;2022-08-21T19:32:19;19.70;99.90
22948;DHT22;11640;52.520;13.456;2022-08-21T19:37:22;19.60;99.90
22948;DHT22;11640;52.520;13.456;2022-08-21T19:42:24;19.50;99.90
22948;DHT22;11640;52.520;13.456;2022-08-21T19:47:31;19.40;99.90
22948;DHT22;11640;52.520;13.456;2022-08-21T19:52:34;19.30;99.90
22948;DHT22;11640;52.520;13.456;2022-08-21T19:57:37;19.20;99.90
22948;DHT22;11640;52.520;13.456;2022-08-21T20:02:39;19.10;99.90
22948;DHT22;11640;52.520;13.456;2022-08-21T20:07:48;19.00;99.90
22948;DHT22;11640;52.520;13.456;2022-08-21T20:12:52;19.00;99.90
22948;DHT22;11640;52.520;13.456;2022-08-21T20:17:54;19.00;99.90
22948;DHT22;11640;52.520;13.456;2022-08-21T20:22:56;18.90;99.90
22948;DHT22;11640;52.520;13.456;2022-08-21T20:27:59;18.80;99.90
22948;DHT22;11640;52.520;13.456;2022-08-21T20:33:02;18.70;99.90
22948;DHT22;11640;52.520;13.456;2022-08-21T20:38:04;18.60;99.90
22948;DHT22;11640;52.520;13.456;2022-08-21T20:43:06;18.50;99.90
22948;DHT22;11640;52.520;13.456;2022-08-21T20:48:34;18.40;99.90
22948;DHT22;11640;52.520;13.456;2022-08-21T20:54:02;18.40;99.90
22948;DHT22;11640;52.520;13.456;2022-08-21T21:04:24;18.30;99.90
22948;DHT22;11640;52.520;13.456;2022-08-21T21:09:37;18.20;99.90
22948;DHT22;11640;52.520;13.456;2022-08-21T21:14:46;18.20;99.90
22948;DHT22;11640;52.520;13.456;2022-08-21T21:19:56;18.10;99.90
22948;DHT22;11640;52.520;13.456;2022-08-21T21:25:38;18.00;99.90
22948;DHT22;11640;52.520;13.456;2022-08-21T21:30:45;17.90;99.90
22948;DHT22;11640;52.520;13.456;2022-08-21T21:36:21;17.80;99.90
22948;DHT22;11640;52.520;13.456;2022-08-21T21:41:34;17.90;99.90
22948;DHT22;11640;52.520;13.456;2022-08-21T21:52:07;17.70;99.90
22948;DHT22;11640;52.520;13.456;2022-08-21T22:03:17;17.50;99.90
22948;DHT22;11640;52.520;13.456;2022-08-21T22:14:17;17.40;99.90
22948;DHT22;11640;52.520;13.456;2022-08-21T22:19:27;17.40;99.90
22948;DHT22;11640;52.520;13.456;2022-08-21T22:24:32;17.30;99.90
22948;DHT22;11640;52.520;13.456;2022-08-21T22:29:53;17.30;99.90
22948;DHT22;11640;52.520;13.456;2022-08-21T22:35:41;17.20;99.90
22948;DHT22;11640;52.520;13.456;2022-08-21T22:40:31;17.20;99.90
22948;DHT22;11640;52.520;13.456;2022-08-21T22:45:55;17.20;99.90
22948;DHT22;11640;52.520;13.456;2022-08-21T22:51:03;17.20;99.90
22948;DHT22;11640;52.520;13.456;2022-08-21T22:56:07;17.20;99.90
22948;DHT22;11640;52.520;13.456;2022-08-21T23:06:34;17.20;99.90
22948;DHT22;11640;52.520;13.456;2022-08-21T23:11:43;17.20;99.90
22948;DHT22;11640;52.520;13.456;2022-08-21T23:33:30;17.30;99.90
22948;DHT22;11640;52.520;13.456;2022-08-21T23:44:07;17.30;99.90
22948;DHT22;11640;52.520;13.456;2022-08-21T23:49:23;17.30;99.90
22948;DHT22;11640;52.520;13.456;2022-08-21T23:54:34;17.30;99.90
